sensor_id;sensor_type;location;lat;lon;timestamp;P1;durP1;ratioP1;P2;durP2;ratioP2
71162;SDS011;58858;50.948;6.566;2023-11-19T00:01:32;0.73;;;0.40;;
71162;SDS011;58858;50.948;6.566;2023-11-19T00:11:33;1.35;;;0.40;;
71162;SDS011;58858;50.948;6.566;2023-11-19T00:21:34;0.55;;;0.30;;
71162;SDS011;58858;50.948;6.566;2023-11-19T00:31:35;1.08;;;0.65;;
71162;SDS011;58858;50.948;6.566;2023-11-19T00:41:36;0.98;;;0.60;;
71162;SDS011;58858;50.948;6.566;2023-11-19T00:51:37;1.85;;;0.40;;
71162;SDS011;58858;50.948;6.566;2023-11-19T01:01:38;0.63;;;0.47;;
71162;SDS011;58858;50.948;6.566;2023-11-19T01:11:39;0.50;;;0.25;;
71162;SDS011;58858;50.948;6.566;2023-11-19T01:21:40;0.43;;;0.40;;
71162;SDS011;58858;50.948;6.566;2023-11-19T01:31:42;5.30;;;1.05;;
71162;SDS011;58858;50.948;6.566;2023-11-19T01:41:43;3.42;;;1.55;;
71162;SDS011;58858;50.948;6.566;2023-11-19T01:51:45;5.60;;;2.55;;
71162;SDS011;58858;50.948;6.566;2023-11-19T02:01:46;3.08;;;1.30;;
71162;SDS011;58858;50.948;6.566;2023-11-19T02:11:47;11.73;;;3.00;;
71162;SDS011;58858;50.948;6.566;2023-11-19T02:21:51;3.53;;;1.63;;
71162;SDS011;58858;50.948;6.566;2023-11-19T02:31:53;8.38;;;1.95;;
71162;SDS011;58858;50.948;6.566;2023-11-19T02:41:56;7.50;;;2.42;;
71162;SDS011;58858;50.948;6.566;2023-11-19T02:51:57;11.30;;;2.67;;
71162;SDS011;58858;50.948;6.566;2023-11-19T03:01:59;6.32;;;2.22;;
71162;SDS011;58858;50.948;6.566;2023-11-19T03:12:01;10.68;;;1.63;;
71162;SDS011;58858;50.948;6.566;2023-11-19T03:22:02;11.63;;;3.42;;
71162;SDS011;58858;50.948;6.566;2023-11-19T03:32:04;7.07;;;1.70;;
71162;SDS011;58858;50.948;6.566;2023-11-19T03:42:05;13.35;;;2.47;;
71162;SDS011;58858;50.948;6.566;2023-11-19T03:52:06;9.43;;;3.25;;
71162;SDS011;58858;50.948;6.566;2023-11-19T04:02:07;10.82;;;4.13;;
71162;SDS011;58858;50.948;6.566;2023-11-19T04:12:08;16.60;;;5.20;;
71162;SDS011;58858;50.948;6.566;2023-11-19T04:22:10;13.05;;;2.70;;
71162;SDS011;58858;50.948;6.566;2023-11-19T04:32:11;12.93;;;3.47;;
71162;SDS011;58858;50.948;6.566;2023-11-19T04:42:12;10.50;;;2.97;;
71162;SDS011;58858;50.948;6.566;2023-11-19T04:52:13;7.15;;;2.13;;
71162;SDS011;58858;50.948;6.566;2023-11-19T05:02:14;8.20;;;2.65;;
71162;SDS011;58858;50.948;6.566;2023-11-19T05:12:16;8.57;;;2.70;;
71162;SDS011;58858;50.948;6.566;2023-11-19T05:22:17;15.60;;;4.25;;
71162;SDS011;58858;50.948;6.566;2023-11-19T05:32:23;10.00;;;2.70;;
71162;SDS011;58858;50.948;6.566;2023-11-19T05:42:25;14.57;;;3.03;;
71162;SDS011;58858;50.948;6.566;2023-11-19T05:52:28;13.30;;;3.75;;
71162;SDS011;58858;50.948;6.566;2023-11-19T06:02:34;24.95;;;5.78;;
71162;SDS011;58858;50.948;6.566;2023-11-19T06:12:35;25.92;;;4.72;;
71162;SDS011;58858;50.948;6.566;2023-11-19T06:22:38;18.38;;;3.92;;
71162;SDS011;58858;50.948;6.566;2023-11-19T06:32:39;22.02;;;4.75;;
71162;SDS011;58858;50.948;6.566;2023-11-19T06:42:40;15.15;;;3.97;;
71162;SDS011;58858;50.948;6.566;2023-11-19T06:52:44;12.40;;;4.22;;
71162;SDS011;58858;50.948;6.566;2023-11-19T07:02:45;19.63;;;6.53;;
71162;SDS011;58858;50.948;6.566;2023-11-19T07:12:47;14.82;;;4.43;;
71162;SDS011;58858;50.948;6.566;2023-11-19T07:22:50;17.13;;;4.32;;
71162;SDS011;58858;50.948;6.566;2023-11-19T07:32:52;20.75;;;5.75;;
71162;SDS011;58858;50.948;6.566;2023-11-19T07:42:53;18.75;;;5.07;;
71162;SDS011;58858;50.948;6.566;2023-11-19T07:52:54;21.63;;;5.93;;
71162;SDS011;58858;50.948;6.566;2023-11-19T08:02:55;18.50;;;4.78;;
71162;SDS011;58858;50.948;6.566;2023-11-19T08:12:58;20.73;;;3.72;;
71162;SDS011;58858;50.948;6.566;2023-11-19T08:22:59;12.90;;;5.15;;
71162;SDS011;58858;50.948;6.566;2023-11-19T08:33:00;17.63;;;3.67;;
71162;SDS011;58858;50.948;6.566;2023-11-19T08:43:03;21.83;;;5.60;;
71162;SDS011;58858;50.948;6.566;2023-11-19T08:53:04;20.30;;;4.28;;
71162;SDS011;58858;50.948;6.566;2023-11-19T09:03:07;24.73;;;4.38;;
71162;SDS011;58858;50.948;6.566;2023-11-19T09:13:10;16.77;;;4.75;;
71162;SDS011;58858;50.948;6.566;2023-11-19T09:23:11;13.13;;;4.82;;
71162;SDS011;58858;50.948;6.566;2023-11-19T09:33:12;22.73;;;4.45;;
71162;SDS011;58858;50.948;6.566;2023-11-19T09:43:17;16.88;;;4.47;;
71162;SDS011;58858;50.948;6.566;2023-11-19T09:53:18;14.32;;;3.95;;
71162;SDS011;58858;50.948;6.566;2023-11-19T10:03:26;17.20;;;4.28;;
71162;SDS011;58858;50.948;6.566;2023-11-19T10:13:28;19.00;;;4.53;;
71162;SDS011;58858;50.948;6.566;2023-11-19T10:23:30;15.85;;;4.05;;
71162;SDS011;58858;50.948;6.566;2023-11-19T10:33:31;18.48;;;5.53;;
71162;SDS011;58858;50.948;6.566;2023-11-19T10:43:42;18.00;;;4.13;;
71162;SDS011;58858;50.948;6.566;2023-11-19T10:53:45;17.25;;;4.57;;
71162;SDS011;58858;50.948;6.566;2023-11-19T11:03:46;15.90;;;4.97;;
71162;SDS011;58858;50.948;6.566;2023-11-19T11:13:49;15.75;;;3.53;;
71162;SDS011;58858;50.948;6.566;2023-11-19T11:45:07;15.43;;;2.95;;
71162;SDS011;58858;50.948;6.566;2023-11-19T11:55:09;9.73;;;3.22;;
71162;SDS011;58858;50.948;6.566;2023-11-19T12:05:12;13.60;;;3.30;;
71162;SDS011;58858;50.948;6.566;2023-11-19T12:15:13;16.67;;;3.70;;
71162;SDS011;58858;50.948;6.566;2023-11-19T12:25:20;14.20;;;3.45;;
71162;SDS011;58858;50.948;6.566;2023-11-19T12:35:21;11.45;;;2.85;;
71162;SDS011;58858;50.948;6.566;2023-11-19T12:45:24;9.43;;;2.28;;
71162;SDS011;58858;50.948;6.566;2023-11-19T12:55:25;10.65;;;3.72;;
71162;SDS011;58858;50.948;6.566;2023-11-19T13:05:28;10.77;;;3.72;;
71162;SDS011;58858;50.948;6.566;2023-11-19T13:15:35;12.30;;;3.50;;
71162;SDS011;58858;50.948;6.566;2023-11-19T13:25:36;18.38;;;3.97;;
71162;SDS011;58858;50.948;6.566;2023-11-19T13:35:37;13.98;;;3.42;;
71162;SDS011;58858;50.948;6.566;2023-11-19T13:45:41;8.93;;;2.97;;
71162;SDS011;58858;50.948;6.566;2023-11-19T13:55:44;21.10;;;5.28;;
71162;SDS011;58858;50.948;6.566;2023-11-19T14:05:45;11.20;;;3.22;;
71162;SDS011;58858;50.948;6.566;2023-11-19T14:15:47;11.68;;;2.30;;
71162;SDS011;58858;50.948;6.566;2023-11-19T14:25:48;9.05;;;2.70;;
71162;SDS011;58858;50.948;6.566;2023-11-19T14:35:50;24.20;;;4.47;;
71162;SDS011;58858;50.948;6.566;2023-11-19T14:45:51;22.65;;;4.50;;
71162;SDS011;58858;50.948;6.566;2023-11-19T14:55:52;9.95;;;3.40;;
71162;SDS011;58858;50.948;6.566;2023-11-19T15:05:55;15.98;;;4.60;;
71162;SDS011;58858;50.948;6.566;2023-11-19T15:15:56;14.00;;;3.45;;
71162;SDS011;58858;50.948;6.566;2023-11-19T15:25:57;12.13;;;4.07;;
71162;SDS011;58858;50.948;6.566;2023-11-19T15:35:58;15.68;;;4.55;;
71162;SDS011;58858;50.948;6.566;2023-11-19T15:46:01;19.38;;;4.85;;
71162;SDS011;58858;50.948;6.566;2023-11-19T15:56:02;15.95;;;3.60;;
71162;SDS011;58858;50.948;6.566;2023-11-19T16:06:03;17.63;;;4.10;;
71162;SDS011;58858;50.948;6.566;2023-11-19T16:16:05;18.00;;;4.60;;
71162;SDS011;58858;50.948;6.566;2023-11-19T16:26:06;18.00;;;4.30;;
71162;SDS011;58858;50.948;6.566;2023-11-19T16:36:07;13.20;;;2.95;;
71162;SDS011;58858;50.948;6.566;2023-11-19T16:46:09;14.30;;;3.53;;
71162;SDS011;58858;50.948;6.566;2023-11-19T16:56:10;16.95;;;5.20;;
71162;SDS011;58858;50.948;6.566;2023-11-19T17:06:11;11.93;;;3.80;;
71162;SDS011;58858;50.948;6.566;2023-11-19T17:16:13;14.18;;;3.85;;
71162;SDS011;58858;50.948;6.566;2023-11-19T17:26:14;15.52;;;3.83;;
71162;SDS011;58858;50.948;6.566;2023-11-19T17:36:15;11.15;;;3.33;;
71162;SDS011;58858;50.948;6.566;2023-11-19T17:46:16;13.02;;;3.63;;
71162;SDS011;58858;50.948;6.566;2023-11-19T17:56:17;17.10;;;4.68;;
71162;SDS011;58858;50.948;6.566;2023-11-19T18:06:18;14.38;;;4.10;;
71162;SDS011;58858;50.948;6.566;2023-11-19T18:16:19;13.25;;;4.18;;
71162;SDS011;58858;50.948;6.566;2023-11-19T18:26:21;14.98;;;3.85;;
71162;SDS011;58858;50.948;6.566;2023-11-19T18:36:22;16.23;;;3.15;;
71162;SDS011;58858;50.948;6.566;2023-11-19T18:46:23;12.30;;;2.92;;
71162;SDS011;58858;50.948;6.566;2023-11-19T18:56:24;18.35;;;4.57;;
71162;SDS011;58858;50.948;6.566;2023-11-19T19:06:25;14.27;;;3.28;;
71162;SDS011;58858;50.948;6.566;2023-11-19T19:16:26;15.27;;;3.83;;
71162;SDS011;58858;50.948;6.566;2023-11-19T19:26:27;13.90;;;3.60;;
71162;SDS011;58858;50.948;6.566;2023-11-19T19:36:29;11.43;;;3.47;;
71162;SDS011;58858;50.948;6.566;2023-11-19T19:46:32;14.40;;;2.83;;
71162;SDS011;58858;50.948;6.566;2023-11-19T19:56:33;11.52;;;3.25;;
71162;SDS011;58858;50.948;6.566;2023-11-19T20:06:38;13.05;;;3.47;;
71162;SDS011;58858;50.948;6.566;2023-11-19T20:16:39;12.37;;;2.87;;
71162;SDS011;58858;50.948;6.566;2023-11-19T20:26:40;7.90;;;2.20;;
71162;SDS011;58858;50.948;6.566;2023-11-19T20:36:41;9.27;;;2.75;;
71162;SDS011;58858;50.948;6.566;2023-11-19T20:46:42;9.40;;;2.35;;
71162;SDS011;58858;50.948;6.566;2023-11-19T20:56:43;10.93;;;2.95;;
71162;SDS011;58858;50.948;6.566;2023-11-19T21:06:45;11.30;;;2.53;;
71162;SDS011;58858;50.948;6.566;2023-11-19T21:16:46;6.65;;;1.85;;
71162;SDS011;58858;50.948;6.566;2023-11-19T21:26:47;8.15;;;1.92;;
71162;SDS011;58858;50.948;6.566;2023-11-19T21:36:48;8.82;;;2.15;;
71162;SDS011;58858;50.948;6.566;2023-11-19T21:46:49;6.80;;;2.33;;
71162;SDS011;58858;50.948;6.566;2023-11-19T21:56:51;10.93;;;2.40;;
71162;SDS011;58858;50.948;6.566;2023-11-19T22:06:52;10.40;;;2.10;;
71162;SDS011;58858;50.948;6.566;2023-11-19T22:16:53;6.30;;;2.08;;
71162;SDS011;58858;50.948;6.566;2023-11-19T22:26:54;7.95;;;2.85;;
71162;SDS011;58858;50.948;6.566;2023-11-19T22:36:55;5.13;;;2.33;;
71162;SDS011;58858;50.948;6.566;2023-11-19T22:46:56;4.15;;;1.42;;
71162;SDS011;58858;50.948;6.566;2023-11-19T22:57:00;2.38;;;0.95;;
71162;SDS011;58858;50.948;6.566;2023-11-19T23:07:01;5.70;;;1.60;;
71162;SDS011;58858;50.948;6.566;2023-11-19T23:17:02;11.07;;;1.95;;
71162;SDS011;58858;50.948;6.566;2023-11-19T23:27:04;6.13;;;1.48;;
71162;SDS011;58858;50.948;6.566;2023-11-19T23:37:05;7.18;;;2.13;;
71162;SDS011;58858;50.948;6.566;2023-11-19T23:47:06;11.93;;;1.85;;
71162;SDS011;58858;50.948;6.566;2023-11-19T23:57:07;5.18;;;1.80;;
